sensor_id;sensor_type;location;lat;lon;timestamp;temperature;humidity
11818;DHT22;5966;52.402;5.322;2023-04-01T00:02:12;10.70;99.90
11818;DHT22;5966;52.402;5.322;2023-04-01T00:04:52;10.70;99.90
11818;DHT22;5966;52.402;5.322;2023-04-01T00:07:24;10.70;99.90
11818;DHT22;5966;52.402;5.322;2023-04-01T00:10:09;10.70;99.90
11818;DHT22;5966;52.402;5.322;2023-04-01T00:12:43;10.70;99.90
11818;DHT22;5966;52.402;5.322;2023-04-01T00:15:12;10.70;99.90
11818;DHT22;5966;52.402;5.322;2023-04-01T00:17:41;10.60;99.90
11818;DHT22;5966;52.402;5.322;2023-04-01T00:20:11;10.60;99.90
11818;DHT22;5966;52.402;5.322;2023-04-01T00:22:39;10.60;99.90
11818;DHT22;5966;52.402;5.322;2023-04-01T00:25:07;10.60;99.90
11818;DHT22;5966;52.402;5.322;2023-04-01T00:27:35;10.50;99.90
11818;DHT22;5966;52.402;5.322;2023-04-01T00:30:04;10.50;99.90
11818;DHT22;5966;52.402;5.322;2023-04-01T00:32:34;10.50;99.90
11818;DHT22;5966;52.402;5.322;2023-04-01T00:35:03;10.50;99.90
11818;DHT22;5966;52.402;5.322;2023-04-01T00:37:34;10.60;99.90
11818;DHT22;5966;52.402;5.322;2023-04-01T00:40:25;10.60;99.90
11818;DHT22;5966;52.402;5.322;2023-04-01T00:42:54;10.60;99.90
11818;DHT22;5966;52.402;5.322;2023-04-01T00:45:29;10.60;99.90
11818;DHT22;5966;52.402;5.322;2023-04-01T00:48:02;10.60;99.90
11818;DHT22;5966;52.402;5.322;2023-04-01T00:50:33;10.50;99.90
11818;DHT22;5966;52.402;5.322;2023-04-01T00:53:02;10.60;99.90
11818;DHT22;5966;52.402;5.322;2023-04-01T00:55:33;10.50;99.90
11818;DHT22;5966;52.402;5.322;2023-04-01T00:58:05;10.60;99.90
11818;DHT22;5966;52.402;5.322;2023-04-01T01:00:35;10.60;99.90
11818;DHT22;5966;52.402;5.322;2023-04-01T01:03:05;10.50;99.90
11818;DHT22;5966;52.402;5.322;2023-04-01T01:05:45;10.50;99.90
11818;DHT22;5966;52.402;5.322;2023-04-01T01:08:25;10.50;99.90
11818;DHT22;5966;52.402;5.322;2023-04-01T01:10:58;10.50;99.90
11818;DHT22;5966;52.402;5.322;2023-04-01T01:13:32;10.50;99.90
11818;DHT22;5966;52.402;5.322;2023-04-01T01:16:11;10.50;99.90
11818;DHT22;5966;52.402;5.322;2023-04-01T01:19:16;10.50;99.90
11818;DHT22;5966;52.402;5.322;2023-04-01T01:25:15;10.50;99.90
11818;DHT22;5966;52.402;5.322;2023-04-01T01:27:51;10.40;99.90
11818;DHT22;5966;52.402;5.322;2023-04-01T01:30:35;10.40;99.90
11818;DHT22;5966;52.402;5.322;2023-04-01T01:33:32;10.40;99.90
11818;DHT22;5966;52.402;5.322;2023-04-01T01:36:10;10.40;99.90
11818;DHT22;5966;52.402;5.322;2023-04-01T01:38:40;10.40;99.90
11818;DHT22;5966;52.402;5.322;2023-04-01T01:41:09;10.40;99.90
11818;DHT22;5966;52.402;5.322;2023-04-01T01:43:40;10.40;99.90
11818;DHT22;5966;52.402;5.322;2023-04-01T01:46:13;10.40;99.90
11818;DHT22;5966;52.402;5.322;2023-04-01T01:48:52;10.40;99.90
11818;DHT22;5966;52.402;5.322;2023-04-01T01:51:23;10.40;99.90
11818;DHT22;5966;52.402;5.322;2023-04-01T01:53:54;10.40;99.90
11818;DHT22;5966;52.402;5.322;2023-04-01T01:56:33;10.40;99.90
11818;DHT22;5966;52.402;5.322;2023-04-01T01:59:29;10.40;99.90
11818;DHT22;5966;52.402;5.322;2023-04-01T02:01:58;10.40;99.90
11818;DHT22;5966;52.402;5.322;2023-04-01T02:04:26;10.40;99.90
11818;DHT22;5966;52.402;5.322;2023-04-01T02:06:59;10.40;99.90
11818;DHT22;5966;52.402;5.322;2023-04-01T02:09:31;10.40;99.90
11818;DHT22;5966;52.402;5.322;2023-04-01T02:12:08;10.40;99.90
11818;DHT22;5966;52.402;5.322;2023-04-01T02:15:00;10.40;99.90
11818;DHT22;5966;52.402;5.322;2023-04-01T02:17:32;10.40;99.90
11818;DHT22;5966;52.402;5.322;2023-04-01T02:20:02;10.40;99.90
11818;DHT22;5966;52.402;5.322;2023-04-01T02:22:38;10.40;99.90
11818;DHT22;5966;52.402;5.322;2023-04-01T02:25:12;10.40;99.90
11818;DHT22;5966;52.402;5.322;2023-04-01T02:27:43;10.40;99.90
11818;DHT22;5966;52.402;5.322;2023-04-01T02:30:17;10.40;99.90
11818;DHT22;5966;52.402;5.322;2023-04-01T02:32:46;10.40;99.90
11818;DHT22;5966;52.402;5.322;2023-04-01T02:35:16;10.40;99.90
11818;DHT22;5966;52.402;5.322;2023-04-01T02:37:48;10.40;99.90
11818;DHT22;5966;52.402;5.322;2023-04-01T02:40:17;10.40;99.90
11818;DHT22;5966;52.402;5.322;2023-04-01T02:42:45;10.40;99.90
11818;DHT22;5966;52.402;5.322;2023-04-01T02:45:16;10.40;99.90
11818;DHT22;5966;52.402;5.322;2023-04-01T02:47:48;10.40;99.90
11818;DHT22;5966;52.402;5.322;2023-04-01T02:50:16;10.50;99.90
11818;DHT22;5966;52.402;5.322;2023-04-01T02:52:45;10.40;99.90
11818;DHT22;5966;52.402;5.322;2023-04-01T02:55:13;10.40;99.90
11818;DHT22;5966;52.402;5.322;2023-04-01T02:57:41;10.50;99.90
11818;DHT22;5966;52.402;5.322;2023-04-01T03:00:17;10.50;99.90
11818;DHT22;5966;52.402;5.322;2023-04-01T03:02:46;10.50;99.90
11818;DHT22;5966;52.402;5.322;2023-04-01T03:05:14;10.50;99.90
11818;DHT22;5966;52.402;5.322;2023-04-01T03:07:42;10.50;99.90
11818;DHT22;5966;52.402;5.322;2023-04-01T03:10:11;10.50;99.90
11818;DHT22;5966;52.402;5.322;2023-04-01T03:12:39;10.50;99.90
11818;DHT22;5966;52.402;5.322;2023-04-01T03:15:10;10.40;99.90
11818;DHT22;5966;52.402;5.322;2023-04-01T03:17:38;10.40;99.90
11818;DHT22;5966;52.402;5.322;2023-04-01T03:20:07;10.40;99.90
11818;DHT22;5966;52.402;5.322;2023-04-01T03:22:37;10.40;99.90
11818;DHT22;5966;52.402;5.322;2023-04-01T03:25:11;10.40;99.90
11818;DHT22;5966;52.402;5.322;2023-04-01T03:27:39;10.40;99.90
11818;DHT22;5966;52.402;5.322;2023-04-01T03:30:08;10.40;99.90
11818;DHT22;5966;52.402;5.322;2023-04-01T03:32:36;10.40;99.90
11818;DHT22;5966;52.402;5.322;2023-04-01T03:35:05;10.40;99.90
11818;DHT22;5966;52.402;5.322;2023-04-01T03:37:38;10.40;99.90
11818;DHT22;5966;52.402;5.322;2023-04-01T03:40:21;10.40;99.90
11818;DHT22;5966;52.402;5.322;2023-04-01T03:42:49;10.40;99.90
11818;DHT22;5966;52.402;5.322;2023-04-01T03:45:19;10.40;99.90
11818;DHT22;5966;52.402;5.322;2023-04-01T03:47:52;10.40;99.90
11818;DHT22;5966;52.402;5.322;2023-04-01T03:50:24;10.30;99.90
11818;DHT22;5966;52.402;5.322;2023-04-01T03:52:52;10.30;99.90
11818;DHT22;5966;52.402;5.322;2023-04-01T03:55:22;10.30;99.90
11818;DHT22;5966;52.402;5.322;2023-04-01T03:57:50;10.40;99.90
11818;DHT22;5966;52.402;5.322;2023-04-01T04:00:18;10.40;99.90
11818;DHT22;5966;52.402;5.322;2023-04-01T04:03:02;10.40;99.90
11818;DHT22;5966;52.402;5.322;2023-04-01T04:05:31;10.30;99.90
11818;DHT22;5966;52.402;5.322;2023-04-01T04:07:59;10.30;99.90
11818;DHT22;5966;52.402;5.322;2023-04-01T04:10:30;10.30;99.90
11818;DHT22;5966;52.402;5.322;2023-04-01T04:13:01;10.30;99.90
11818;DHT22;5966;52.402;5.322;2023-04-01T04:15:31;10.30;99.90
11818;DHT22;5966;52.402;5.322;2023-04-01T04:18:10;10.30;99.90
11818;DHT22;5966;52.402;5.322;2023-04-01T04:21:12;10.20;99.90
11818;DHT22;5966;52.402;5.322;2023-04-01T04:23:40;10.20;99.90
11818;DHT22;5966;52.402;5.322;2023-04-01T04:26:27;10.10;99.90
11818;DHT22;5966;52.402;5.322;2023-04-01T04:29:17;10.10;99.90
11818;DHT22;5966;52.402;5.322;2023-04-01T04:31:45;10.10;99.90
11818;DHT22;5966;52.402;5.322;2023-04-01T04:34:13;10.10;99.90
11818;DHT22;5966;52.402;5.322;2023-04-01T04:36:41;10.00;99.90
11818;DHT22;5966;52.402;5.322;2023-04-01T04:39:09;10.00;99.90
11818;DHT22;5966;52.402;5.322;2023-04-01T04:41:39;10.00;99.90
11818;DHT22;5966;52.402;5.322;2023-04-01T04:44:07;10.00;99.90
11818;DHT22;5966;52.402;5.322;2023-04-01T04:46:35;10.00;99.90
11818;DHT22;5966;52.402;5.322;2023-04-01T04:49:06;9.90;99.90
11818;DHT22;5966;52.402;5.322;2023-04-01T04:51:35;9.90;99.90
11818;DHT22;5966;52.402;5.322;2023-04-01T04:54:05;9.90;99.90
11818;DHT22;5966;52.402;5.322;2023-04-01T04:56:46;10.00;99.90
11818;DHT22;5966;52.402;5.322;2023-04-01T04:59:14;9.90;99.90
11818;DHT22;5966;52.402;5.322;2023-04-01T05:01:42;9.90;99.90
11818;DHT22;5966;52.402;5.322;2023-04-01T05:04:11;10.00;99.90
11818;DHT22;5966;52.402;5.322;2023-04-01T05:06:46;10.00;99.90
11818;DHT22;5966;52.402;5.322;2023-04-01T05:09:14;9.90;99.90
11818;DHT22;5966;52.402;5.322;2023-04-01T05:11:44;9.90;99.90
11818;DHT22;5966;52.402;5.322;2023-04-01T05:14:13;9.90;99.90
11818;DHT22;5966;52.402;5.322;2023-04-01T05:16:41;9.90;99.90
11818;DHT22;5966;52.402;5.322;2023-04-01T05:19:09;9.90;99.90
11818;DHT22;5966;52.402;5.322;2023-04-01T05:21:37;9.90;99.90
11818;DHT22;5966;52.402;5.322;2023-04-01T05:24:08;9.90;99.90
11818;DHT22;5966;52.402;5.322;2023-04-01T05:26:36;9.90;99.90
11818;DHT22;5966;52.402;5.322;2023-04-01T05:29:15;9.90;99.90
11818;DHT22;5966;52.402;5.322;2023-04-01T05:31:47;9.90;99.90
11818;DHT22;5966;52.402;5.322;2023-04-01T05:34:15;9.90;99.90
11818;DHT22;5966;52.402;5.322;2023-04-01T05:36:43;9.90;99.90
11818;DHT22;5966;52.402;5.322;2023-04-01T05:39:12;9.90;99.90
11818;DHT22;5966;52.402;5.322;2023-04-01T05:41:40;9.90;99.90
11818;DHT22;5966;52.402;5.322;2023-04-01T05:44:11;9.90;99.90
11818;DHT22;5966;52.402;5.322;2023-04-01T05:46:39;9.90;99.90
11818;DHT22;5966;52.402;5.322;2023-04-01T05:49:07;9.90;99.90
11818;DHT22;5966;52.402;5.322;2023-04-01T05:51:35;9.90;99.90
11818;DHT22;5966;52.402;5.322;2023-04-01T05:54:04;9.80;99.90
11818;DHT22;5966;52.402;5.322;2023-04-01T05:56:32;9.80;99.90
11818;DHT22;5966;52.402;5.322;2023-04-01T05:59:00;9.80;99.90
11818;DHT22;5966;52.402;5.322;2023-04-01T06:01:29;9.70;99.90
11818;DHT22;5966;52.402;5.322;2023-04-01T06:03:57;9.70;99.90
11818;DHT22;5966;52.402;5.322;2023-04-01T06:06:26;9.60;99.90
11818;DHT22;5966;52.402;5.322;2023-04-01T06:08:56;9.60;99.90
11818;DHT22;5966;52.402;5.322;2023-04-01T06:11:31;9.60;99.90
11818;DHT22;5966;52.402;5.322;2023-04-01T06:14:19;9.60;99.90
11818;DHT22;5966;52.402;5.322;2023-04-01T06:17:01;9.70;99.90
11818;DHT22;5966;52.402;5.322;2023-04-01T06:19:40;9.60;99.90
11818;DHT22;5966;52.402;5.322;2023-04-01T06:22:36;9.60;99.90
11818;DHT22;5966;52.402;5.322;2023-04-01T06:25:36;9.70;99.90
11818;DHT22;5966;52.402;5.322;2023-04-01T06:28:39;9.70;99.90
11818;DHT22;5966;52.402;5.322;2023-04-01T06:31:23;9.70;99.90
11818;DHT22;5966;52.402;5.322;2023-04-01T06:34:29;9.70;99.90
11818;DHT22;5966;52.402;5.322;2023-04-01T06:37:11;9.80;99.90
11818;DHT22;5966;52.402;5.322;2023-04-01T06:40:08;9.80;99.90
11818;DHT22;5966;52.402;5.322;2023-04-01T06:42:52;9.80;99.90
11818;DHT22;5966;52.402;5.322;2023-04-01T06:45:32;9.80;99.90
11818;DHT22;5966;52.402;5.322;2023-04-01T06:48:27;9.80;99.90
11818;DHT22;5966;52.402;5.322;2023-04-01T06:51:06;9.80;99.90
11818;DHT22;5966;52.402;5.322;2023-04-01T06:53:44;9.80;99.90
11818;DHT22;5966;52.402;5.322;2023-04-01T06:56:19;9.80;99.90
11818;DHT22;5966;52.402;5.322;2023-04-01T06:59:00;9.80;99.90
11818;DHT22;5966;52.402;5.322;2023-04-01T07:01:34;9.80;99.90
11818;DHT22;5966;52.402;5.322;2023-04-01T07:04:06;9.90;99.90
11818;DHT22;5966;52.402;5.322;2023-04-01T07:06:51;9.80;99.90
11818;DHT22;5966;52.402;5.322;2023-04-01T07:09:24;9.90;99.90
11818;DHT22;5966;52.402;5.322;2023-04-01T07:11:59;9.90;99.90
11818;DHT22;5966;52.402;5.322;2023-04-01T07:14:31;9.90;99.90
11818;DHT22;5966;52.402;5.322;2023-04-01T07:17:05;9.90;99.90
11818;DHT22;5966;52.402;5.322;2023-04-01T07:19:44;9.90;99.90
11818;DHT22;5966;52.402;5.322;2023-04-01T07:22:34;9.90;99.90
11818;DHT22;5966;52.402;5.322;2023-04-01T07:25:17;10.00;99.90
11818;DHT22;5966;52.402;5.322;2023-04-01T07:27:48;9.90;99.90
11818;DHT22;5966;52.402;5.322;2023-04-01T07:30:19;10.00;99.90
11818;DHT22;5966;52.402;5.322;2023-04-01T07:32:54;10.00;99.90
11818;DHT22;5966;52.402;5.322;2023-04-01T07:35:31;10.00;99.90
11818;DHT22;5966;52.402;5.322;2023-04-01T07:38:26;10.00;99.90
11818;DHT22;5966;52.402;5.322;2023-04-01T07:41:06;10.00;99.90
11818;DHT22;5966;52.402;5.322;2023-04-01T07:43:56;10.00;99.90
11818;DHT22;5966;52.402;5.322;2023-04-01T07:46:49;10.00;99.90
11818;DHT22;5966;52.402;5.322;2023-04-01T07:49:34;10.10;99.90
11818;DHT22;5966;52.402;5.322;2023-04-01T07:52:15;10.10;99.90
11818;DHT22;5966;52.402;5.322;2023-04-01T07:54:55;10.00;99.90
11818;DHT22;5966;52.402;5.322;2023-04-01T07:57:33;10.10;99.90
11818;DHT22;5966;52.402;5.322;2023-04-01T08:00:26;10.10;99.90
11818;DHT22;5966;52.402;5.322;2023-04-01T08:03:07;10.10;99.90
11818;DHT22;5966;52.402;5.322;2023-04-01T08:05:53;10.10;99.90
11818;DHT22;5966;52.402;5.322;2023-04-01T08:08:29;10.10;99.90
11818;DHT22;5966;52.402;5.322;2023-04-01T08:11:21;10.10;99.90
11818;DHT22;5966;52.402;5.322;2023-04-01T08:14:03;10.10;99.90
11818;DHT22;5966;52.402;5.322;2023-04-01T08:16:48;10.20;99.90
11818;DHT22;5966;52.402;5.322;2023-04-01T08:19:30;10.20;99.90
11818;DHT22;5966;52.402;5.322;2023-04-01T08:22:03;10.20;99.90
11818;DHT22;5966;52.402;5.322;2023-04-01T08:24:40;10.20;99.90
11818;DHT22;5966;52.402;5.322;2023-04-01T08:27:21;10.20;99.90
11818;DHT22;5966;52.402;5.322;2023-04-01T08:29:56;10.20;99.90
11818;DHT22;5966;52.402;5.322;2023-04-01T08:32:30;10.20;99.90
11818;DHT22;5966;52.402;5.322;2023-04-01T08:35:16;10.30;99.90
11818;DHT22;5966;52.402;5.322;2023-04-01T08:37:45;10.30;99.90
11818;DHT22;5966;52.402;5.322;2023-04-01T08:40:39;10.30;99.90
11818;DHT22;5966;52.402;5.322;2023-04-01T08:43:14;10.40;99.90
11818;DHT22;5966;52.402;5.322;2023-04-01T08:46:13;10.50;99.90
11818;DHT22;5966;52.402;5.322;2023-04-01T08:48:59;10.50;99.90
11818;DHT22;5966;52.402;5.322;2023-04-01T08:52:01;10.50;99.90
11818;DHT22;5966;52.402;5.322;2023-04-01T08:54:43;10.60;99.90
11818;DHT22;5966;52.402;5.322;2023-04-01T08:57:20;10.60;99.90
11818;DHT22;5966;52.402;5.322;2023-04-01T09:00:10;10.70;99.90
11818;DHT22;5966;52.402;5.322;2023-04-01T09:03:00;10.80;99.90
11818;DHT22;5966;52.402;5.322;2023-04-01T09:05:47;10.80;99.90
11818;DHT22;5966;52.402;5.322;2023-04-01T09:08:34;10.80;99.90
11818;DHT22;5966;52.402;5.322;2023-04-01T09:11:23;10.70;99.90
11818;DHT22;5966;52.402;5.322;2023-04-01T09:14:23;10.80;99.90
11818;DHT22;5966;52.402;5.322;2023-04-01T09:17:23;10.80;99.90
11818;DHT22;5966;52.402;5.322;2023-04-01T09:20:09;10.80;99.90
11818;DHT22;5966;52.402;5.322;2023-04-01T09:22:51;10.90;99.90
11818;DHT22;5966;52.402;5.322;2023-04-01T09:25:36;10.90;99.90
11818;DHT22;5966;52.402;5.322;2023-04-01T09:28:10;10.90;99.90
11818;DHT22;5966;52.402;5.322;2023-04-01T09:31:08;10.90;99.90
11818;DHT22;5966;52.402;5.322;2023-04-01T09:36:45;10.90;99.90
11818;DHT22;5966;52.402;5.322;2023-04-01T09:39:34;10.90;99.90
11818;DHT22;5966;52.402;5.322;2023-04-01T09:42:37;10.80;99.90
11818;DHT22;5966;52.402;5.322;2023-04-01T09:45:21;10.80;99.90
11818;DHT22;5966;52.402;5.322;2023-04-01T09:48:02;10.80;99.90
11818;DHT22;5966;52.402;5.322;2023-04-01T09:50:38;10.90;99.90
11818;DHT22;5966;52.402;5.322;2023-04-01T09:53:36;10.90;99.90
11818;DHT22;5966;52.402;5.322;2023-04-01T09:59:49;10.80;99.90
11818;DHT22;5966;52.402;5.322;2023-04-01T10:02:54;10.70;99.90
11818;DHT22;5966;52.402;5.322;2023-04-01T10:24:55;10.90;99.90
11818;DHT22;5966;52.402;5.322;2023-04-01T10:37:08;11.10;99.90
11818;DHT22;5966;52.402;5.322;2023-04-01T10:46:28;11.30;99.90
11818;DHT22;5966;52.402;5.322;2023-04-01T10:49:58;11.30;99.90
11818;DHT22;5966;52.402;5.322;2023-04-01T10:55:53;11.10;99.90
11818;DHT22;5966;52.402;5.322;2023-04-01T10:59:03;11.20;99.90
11818;DHT22;5966;52.402;5.322;2023-04-01T11:02:07;11.10;99.90
11818;DHT22;5966;52.402;5.322;2023-04-01T11:11:47;10.90;99.90
11818;DHT22;5966;52.402;5.322;2023-04-01T11:15:17;10.80;99.90
11818;DHT22;5966;52.402;5.322;2023-04-01T11:18:18;10.80;99.90
11818;DHT22;5966;52.402;5.322;2023-04-01T11:27:54;10.50;99.90
11818;DHT22;5966;52.402;5.322;2023-04-01T11:30:33;10.50;99.90
11818;DHT22;5966;52.402;5.322;2023-04-01T11:33:07;10.40;99.90
11818;DHT22;5966;52.402;5.322;2023-04-01T11:36:15;10.40;99.90
11818;DHT22;5966;52.402;5.322;2023-04-01T11:39:11;10.40;99.90
11818;DHT22;5966;52.402;5.322;2023-04-01T11:41:52;10.40;99.90
11818;DHT22;5966;52.402;5.322;2023-04-01T11:44:24;10.50;99.90
11818;DHT22;5966;52.402;5.322;2023-04-01T11:47:36;10.50;99.90
11818;DHT22;5966;52.402;5.322;2023-04-01T11:50:21;10.70;99.90
11818;DHT22;5966;52.402;5.322;2023-04-01T11:53:23;10.80;99.90
11818;DHT22;5966;52.402;5.322;2023-04-01T11:56:14;11.00;99.90
11818;DHT22;5966;52.402;5.322;2023-04-01T11:59:00;11.10;99.90
11818;DHT22;5966;52.402;5.322;2023-04-01T12:01:42;11.10;99.90
11818;DHT22;5966;52.402;5.322;2023-04-01T12:07:59;10.90;99.90
11818;DHT22;5966;52.402;5.322;2023-04-01T12:10:37;10.80;99.90
11818;DHT22;5966;52.402;5.322;2023-04-01T12:13:18;10.70;99.90
11818;DHT22;5966;52.402;5.322;2023-04-01T12:19:01;10.60;99.90
11818;DHT22;5966;52.402;5.322;2023-04-01T12:21:37;10.60;99.90
11818;DHT22;5966;52.402;5.322;2023-04-01T12:24:42;10.60;99.90
11818;DHT22;5966;52.402;5.322;2023-04-01T12:27:35;10.60;99.90
11818;DHT22;5966;52.402;5.322;2023-04-01T12:30:26;10.60;99.90
11818;DHT22;5966;52.402;5.322;2023-04-01T12:33:29;10.50;99.90
11818;DHT22;5966;52.402;5.322;2023-04-01T12:36:12;10.50;99.90
11818;DHT22;5966;52.402;5.322;2023-04-01T12:38:51;10.40;99.90
11818;DHT22;5966;52.402;5.322;2023-04-01T12:41:32;10.40;99.90
11818;DHT22;5966;52.402;5.322;2023-04-01T12:44:28;10.40;99.90
11818;DHT22;5966;52.402;5.322;2023-04-01T12:47:24;10.40;99.90
11818;DHT22;5966;52.402;5.322;2023-04-01T12:50:16;10.40;99.90
11818;DHT22;5966;52.402;5.322;2023-04-01T12:53:00;10.40;99.90
11818;DHT22;5966;52.402;5.322;2023-04-01T12:55:44;10.30;99.90
11818;DHT22;5966;52.402;5.322;2023-04-01T13:01:30;10.20;99.90
11818;DHT22;5966;52.402;5.322;2023-04-01T13:07:29;10.20;99.90
11818;DHT22;5966;52.402;5.322;2023-04-01T13:10:07;10.10;99.90
11818;DHT22;5966;52.402;5.322;2023-04-01T13:16:26;10.20;99.90
11818;DHT22;5966;52.402;5.322;2023-04-01T13:19:06;10.20;99.90
11818;DHT22;5966;52.402;5.322;2023-04-01T13:21:46;10.20;99.90
11818;DHT22;5966;52.402;5.322;2023-04-01T13:24:36;10.40;99.90
11818;DHT22;5966;52.402;5.322;2023-04-01T13:27:09;10.30;99.90
11818;DHT22;5966;52.402;5.322;2023-04-01T13:29:45;10.30;99.90
11818;DHT22;5966;52.402;5.322;2023-04-01T13:32:28;10.30;99.90
11818;DHT22;5966;52.402;5.322;2023-04-01T13:35:23;10.30;99.90
11818;DHT22;5966;52.402;5.322;2023-04-01T13:38:13;10.40;99.90
11818;DHT22;5966;52.402;5.322;2023-04-01T13:40:55;10.50;99.90
11818;DHT22;5966;52.402;5.322;2023-04-01T13:43:32;10.50;99.90
11818;DHT22;5966;52.402;5.322;2023-04-01T13:46:20;10.50;99.90
11818;DHT22;5966;52.402;5.322;2023-04-01T13:55:21;10.40;99.90
11818;DHT22;5966;52.402;5.322;2023-04-01T13:58:07;10.30;99.90
11818;DHT22;5966;52.402;5.322;2023-04-01T14:00:51;10.30;99.90
11818;DHT22;5966;52.402;5.322;2023-04-01T14:03:32;10.20;99.90
11818;DHT22;5966;52.402;5.322;2023-04-01T14:06:30;10.30;99.90
11818;DHT22;5966;52.402;5.322;2023-04-01T14:09:17;10.30;99.90
11818;DHT22;5966;52.402;5.322;2023-04-01T14:12:08;10.30;99.90
11818;DHT22;5966;52.402;5.322;2023-04-01T14:14:48;10.20;99.90
11818;DHT22;5966;52.402;5.322;2023-04-01T14:17:39;10.30;99.90
11818;DHT22;5966;52.402;5.322;2023-04-01T14:20:39;10.20;99.90
11818;DHT22;5966;52.402;5.322;2023-04-01T14:27:05;10.20;99.90
11818;DHT22;5966;52.402;5.322;2023-04-01T14:29:52;10.10;99.90
11818;DHT22;5966;52.402;5.322;2023-04-01T14:32:45;10.10;99.90
11818;DHT22;5966;52.402;5.322;2023-04-01T14:35:31;10.10;99.90
11818;DHT22;5966;52.402;5.322;2023-04-01T14:38:28;10.10;99.90
11818;DHT22;5966;52.402;5.322;2023-04-01T14:41:19;10.00;99.90
11818;DHT22;5966;52.402;5.322;2023-04-01T14:44:11;10.00;99.90
11818;DHT22;5966;52.402;5.322;2023-04-01T14:47:24;10.00;99.90
11818;DHT22;5966;52.402;5.322;2023-04-01T14:50:20;10.10;99.90
11818;DHT22;5966;52.402;5.322;2023-04-01T14:52:58;10.10;99.90
11818;DHT22;5966;52.402;5.322;2023-04-01T14:55:33;10.00;99.90
11818;DHT22;5966;52.402;5.322;2023-04-01T14:58:18;10.00;99.90
11818;DHT22;5966;52.402;5.322;2023-04-01T15:00:58;10.00;99.90
11818;DHT22;5966;52.402;5.322;2023-04-01T15:03:54;10.00;99.90
11818;DHT22;5966;52.402;5.322;2023-04-01T15:06:54;10.00;99.90
11818;DHT22;5966;52.402;5.322;2023-04-01T15:09:34;10.00;99.90
11818;DHT22;5966;52.402;5.322;2023-04-01T15:12:12;10.00;99.90
11818;DHT22;5966;52.402;5.322;2023-04-01T15:15:10;9.90;99.90
11818;DHT22;5966;52.402;5.322;2023-04-01T15:17:54;10.00;99.90
11818;DHT22;5966;52.402;5.322;2023-04-01T15:20:35;9.90;99.90
11818;DHT22;5966;52.402;5.322;2023-04-01T15:23:19;9.90;99.90
11818;DHT22;5966;52.402;5.322;2023-04-01T15:26:06;9.90;99.90
11818;DHT22;5966;52.402;5.322;2023-04-01T15:32:26;9.90;99.90
11818;DHT22;5966;52.402;5.322;2023-04-01T15:35:24;9.90;99.90
11818;DHT22;5966;52.402;5.322;2023-04-01T15:38:12;9.80;99.90
11818;DHT22;5966;52.402;5.322;2023-04-01T15:40:57;9.80;99.90
11818;DHT22;5966;52.402;5.322;2023-04-01T15:43:39;9.80;99.90
11818;DHT22;5966;52.402;5.322;2023-04-01T15:46:39;9.80;99.90
11818;DHT22;5966;52.402;5.322;2023-04-01T15:49:19;9.80;99.90
11818;DHT22;5966;52.402;5.322;2023-04-01T15:52:05;9.80;99.90
11818;DHT22;5966;52.402;5.322;2023-04-01T15:55:07;9.70;99.90
11818;DHT22;5966;52.402;5.322;2023-04-01T15:57:46;9.60;99.90
11818;DHT22;5966;52.402;5.322;2023-04-01T16:00:25;9.60;99.90
11818;DHT22;5966;52.402;5.322;2023-04-01T16:03:15;9.60;99.90
11818;DHT22;5966;52.402;5.322;2023-04-01T16:06:11;9.60;99.90
11818;DHT22;5966;52.402;5.322;2023-04-01T16:09:02;9.50;99.90
11818;DHT22;5966;52.402;5.322;2023-04-01T16:11:41;9.50;99.90
11818;DHT22;5966;52.402;5.322;2023-04-01T16:14:25;9.50;99.90
11818;DHT22;5966;52.402;5.322;2023-04-01T16:17:21;9.50;99.90
11818;DHT22;5966;52.402;5.322;2023-04-01T16:19:58;9.40;99.90
11818;DHT22;5966;52.402;5.322;2023-04-01T16:22:44;9.30;99.90
11818;DHT22;5966;52.402;5.322;2023-04-01T16:25:21;9.30;99.90
11818;DHT22;5966;52.402;5.322;2023-04-01T16:28:07;9.20;99.90
11818;DHT22;5966;52.402;5.322;2023-04-01T16:30:55;9.10;99.90
11818;DHT22;5966;52.402;5.322;2023-04-01T16:33:34;9.10;99.90
11818;DHT22;5966;52.402;5.322;2023-04-01T16:36:28;9.10;99.90
11818;DHT22;5966;52.402;5.322;2023-04-01T16:39:18;9.10;99.90
11818;DHT22;5966;52.402;5.322;2023-04-01T16:45:14;9.10;99.90
11818;DHT22;5966;52.402;5.322;2023-04-01T16:47:49;9.10;99.90
11818;DHT22;5966;52.402;5.322;2023-04-01T16:50:21;9.00;99.90
11818;DHT22;5966;52.402;5.322;2023-04-01T16:53:00;9.00;99.90
11818;DHT22;5966;52.402;5.322;2023-04-01T16:55:43;8.90;99.90
11818;DHT22;5966;52.402;5.322;2023-04-01T16:58:34;8.90;99.90
11818;DHT22;5966;52.402;5.322;2023-04-01T17:01:15;8.90;99.90
11818;DHT22;5966;52.402;5.322;2023-04-01T17:03:46;8.90;99.90
11818;DHT22;5966;52.402;5.322;2023-04-01T17:06:39;8.90;99.90
11818;DHT22;5966;52.402;5.322;2023-04-01T17:09:40;8.90;99.90
11818;DHT22;5966;52.402;5.322;2023-04-01T17:12:18;8.90;99.90
11818;DHT22;5966;52.402;5.322;2023-04-01T17:14:59;8.90;99.90
11818;DHT22;5966;52.402;5.322;2023-04-01T17:17:42;8.80;99.90
11818;DHT22;5966;52.402;5.322;2023-04-01T17:20:26;8.80;99.90
11818;DHT22;5966;52.402;5.322;2023-04-01T17:23:16;8.80;99.90
11818;DHT22;5966;52.402;5.322;2023-04-01T17:25:57;8.80;99.90
11818;DHT22;5966;52.402;5.322;2023-04-01T17:28:41;8.70;99.90
11818;DHT22;5966;52.402;5.322;2023-04-01T17:31:41;8.70;99.90
11818;DHT22;5966;52.402;5.322;2023-04-01T17:37:21;8.80;99.90
11818;DHT22;5966;52.402;5.322;2023-04-01T17:40:00;8.70;99.90
11818;DHT22;5966;52.402;5.322;2023-04-01T17:42:38;8.70;99.90
11818;DHT22;5966;52.402;5.322;2023-04-01T17:45:16;8.70;99.90
11818;DHT22;5966;52.402;5.322;2023-04-01T17:47:58;8.60;99.90
11818;DHT22;5966;52.402;5.322;2023-04-01T17:51:03;8.60;99.90
11818;DHT22;5966;52.402;5.322;2023-04-01T17:53:47;8.60;99.90
11818;DHT22;5966;52.402;5.322;2023-04-01T17:56:28;8.50;99.90
11818;DHT22;5966;52.402;5.322;2023-04-01T17:59:04;8.50;99.90
11818;DHT22;5966;52.402;5.322;2023-04-01T18:01:48;8.50;99.90
11818;DHT22;5966;52.402;5.322;2023-04-01T18:07:48;8.40;99.90
11818;DHT22;5966;52.402;5.322;2023-04-01T18:10:25;8.40;99.90
11818;DHT22;5966;52.402;5.322;2023-04-01T18:13:22;8.40;99.90
11818;DHT22;5966;52.402;5.322;2023-04-01T18:16:02;8.20;99.90
11818;DHT22;5966;52.402;5.322;2023-04-01T18:18:46;8.20;99.90
11818;DHT22;5966;52.402;5.322;2023-04-01T18:21:26;8.20;99.90
11818;DHT22;5966;52.402;5.322;2023-04-01T18:24:00;8.20;99.90
11818;DHT22;5966;52.402;5.322;2023-04-01T18:26:44;8.20;99.90
11818;DHT22;5966;52.402;5.322;2023-04-01T18:29:28;8.20;99.90
11818;DHT22;5966;52.402;5.322;2023-04-01T18:32:12;8.20;99.90
11818;DHT22;5966;52.402;5.322;2023-04-01T18:34:50;8.20;99.90
11818;DHT22;5966;52.402;5.322;2023-04-01T18:37:25;8.10;99.90
11818;DHT22;5966;52.402;5.322;2023-04-01T18:40:10;8.20;99.90
11818;DHT22;5966;52.402;5.322;2023-04-01T18:42:45;8.10;99.90
11818;DHT22;5966;52.402;5.322;2023-04-01T18:45:20;8.20;99.90
11818;DHT22;5966;52.402;5.322;2023-04-01T18:47:59;8.20;99.90
11818;DHT22;5966;52.402;5.322;2023-04-01T18:50:56;8.20;99.90
11818;DHT22;5966;52.402;5.322;2023-04-01T18:53:28;8.20;99.90
11818;DHT22;5966;52.402;5.322;2023-04-01T18:56:05;8.10;99.90
11818;DHT22;5966;52.402;5.322;2023-04-01T18:58:35;8.20;99.90
11818;DHT22;5966;52.402;5.322;2023-04-01T19:01:31;8.20;99.90